Ana Sayfa
METAR-TAF:

METAR-TAF

Havaalanları :

Oscoda-Wurtsmith Airport

Oscoda, Michigan, Amerika Birleşik Devletleri

Enlem: 44-27N, Boylam: 083-22W, yükseklik: 193 m

Güncel hava durumu gözlemi

Rapor saat 03:15 UTC de 10 dakika önce yapıldı.
Rüzgar kuzey/kuzeybatıdan 3 kt
Sıcaklık -6°C
Nem 73%
Basınç 1027 hPa
Görüş mesafesi: 16.1 km
3200 ft yükseklikte parçalı bulutlu

METAR: KOSC 070315Z AUTO 34003KT 10SM SCT032 M06/M10 A3032 RMK AO2 T10601105

Saat: 22:25 (03:25 UTC)


TAF: eksik

4.000'den fazla havaalanı için hava durumu gözlemleri ve tahminleri (METAR ve TAF raporları).

Kullanılabilir istasyonlar harita üzerinde sarı ve kırmızı noktalarla gösterilir.

İstasyonun adını görmek için fareyi noktanın üzerinde gezdirin.

Sonrasında hava gözlem ve tahminlerini görmek için tıklayın.

Haritayı değiştirmek için: yaklaştırmak için siyah artı işaretli yeşil düğmeye ve uzaklaştırmak için de eksi işaretli düğmeye hızla tıklayın; bitişik haritalar için yeşil okları kullanın.


METAR-TAF: